sensor_id;sensor_type;location;lat;lon;timestamp;temperature;humidity
9987;DHT22;5033;46.310;11.214;2023-03-14T00:00:05;11.10;99.90
9987;DHT22;5033;46.310;11.214;2023-03-14T00:02:35;11.10;99.90
9987;DHT22;5033;46.310;11.214;2023-03-14T00:05:02;11.00;99.90
9987;DHT22;5033;46.310;11.214;2023-03-14T00:07:32;10.90;99.90
9987;DHT22;5033;46.310;11.214;2023-03-14T00:10:01;10.80;99.90
9987;DHT22;5033;46.310;11.214;2023-03-14T00:12:30;10.70;99.90
9987;DHT22;5033;46.310;11.214;2023-03-14T00:14:57;10.70;99.90
9987;DHT22;5033;46.310;11.214;2023-03-14T00:17:25;10.80;99.90
9987;DHT22;5033;46.310;11.214;2023-03-14T00:19:54;10.80;99.90
9987;DHT22;5033;46.310;11.214;2023-03-14T00:22:21;10.70;99.90
9987;DHT22;5033;46.310;11.214;2023-03-14T00:24:48;10.60;99.90
9987;DHT22;5033;46.310;11.214;2023-03-14T00:27:15;10.50;99.90
9987;DHT22;5033;46.310;11.214;2023-03-14T00:29:43;10.30;99.90
9987;DHT22;5033;46.310;11.214;2023-03-14T00:32:10;10.20;99.90
9987;DHT22;5033;46.310;11.214;2023-03-14T00:34:37;10.10;99.90
9987;DHT22;5033;46.310;11.214;2023-03-14T00:37:06;10.00;99.90
9987;DHT22;5033;46.310;11.214;2023-03-14T00:39:33;9.90;99.90
9987;DHT22;5033;46.310;11.214;2023-03-14T00:42:00;9.80;99.90
9987;DHT22;5033;46.310;11.214;2023-03-14T00:44:27;9.70;99.90
9987;DHT22;5033;46.310;11.214;2023-03-14T00:46:54;9.80;99.90
9987;DHT22;5033;46.310;11.214;2023-03-14T00:49:22;9.70;99.90
9987;DHT22;5033;46.310;11.214;2023-03-14T00:51:49;9.60;99.90
9987;DHT22;5033;46.310;11.214;2023-03-14T00:54:18;9.50;99.90
9987;DHT22;5033;46.310;11.214;2023-03-14T00:56:45;9.40;99.90
9987;DHT22;5033;46.310;11.214;2023-03-14T00:59:13;9.20;99.90
9987;DHT22;5033;46.310;11.214;2023-03-14T01:01:40;9.00;99.90
9987;DHT22;5033;46.310;11.214;2023-03-14T01:04:08;8.70;99.90
9987;DHT22;5033;46.310;11.214;2023-03-14T01:06:35;8.50;99.90
9987;DHT22;5033;46.310;11.214;2023-03-14T01:09:02;8.50;99.90
9987;DHT22;5033;46.310;11.214;2023-03-14T01:11:32;8.40;99.90
9987;DHT22;5033;46.310;11.214;2023-03-14T01:14:00;8.40;99.90
9987;DHT22;5033;46.310;11.214;2023-03-14T01:16:29;8.30;99.90
9987;DHT22;5033;46.310;11.214;2023-03-14T01:18:56;8.20;99.90
9987;DHT22;5033;46.310;11.214;2023-03-14T01:21:26;8.20;99.90
9987;DHT22;5033;46.310;11.214;2023-03-14T01:23:57;8.10;99.90
9987;DHT22;5033;46.310;11.214;2023-03-14T01:26:26;8.10;99.90
9987;DHT22;5033;46.310;11.214;2023-03-14T01:28:55;8.10;99.90
9987;DHT22;5033;46.310;11.214;2023-03-14T01:31:23;8.10;99.90
9987;DHT22;5033;46.310;11.214;2023-03-14T01:33:50;8.10;99.90
9987;DHT22;5033;46.310;11.214;2023-03-14T01:36:18;8.10;99.90
9987;DHT22;5033;46.310;11.214;2023-03-14T01:38:45;8.10;99.90
9987;DHT22;5033;46.310;11.214;2023-03-14T01:41:14;8.00;99.90
9987;DHT22;5033;46.310;11.214;2023-03-14T01:43:41;8.00;99.90
9987;DHT22;5033;46.310;11.214;2023-03-14T01:46:24;8.00;99.90
9987;DHT22;5033;46.310;11.214;2023-03-14T01:48:57;8.00;99.90
9987;DHT22;5033;46.310;11.214;2023-03-14T01:51:31;8.10;99.90
9987;DHT22;5033;46.310;11.214;2023-03-14T01:54:04;8.10;99.90
9987;DHT22;5033;46.310;11.214;2023-03-14T01:56:32;8.10;99.90
9987;DHT22;5033;46.310;11.214;2023-03-14T01:58:59;8.10;99.90
9987;DHT22;5033;46.310;11.214;2023-03-14T02:01:29;8.10;99.90
9987;DHT22;5033;46.310;11.214;2023-03-14T02:03:58;8.10;99.90
9987;DHT22;5033;46.310;11.214;2023-03-14T02:06:29;8.10;99.90
9987;DHT22;5033;46.310;11.214;2023-03-14T02:08:57;8.20;99.90
9987;DHT22;5033;46.310;11.214;2023-03-14T02:11:28;8.20;99.90
9987;DHT22;5033;46.310;11.214;2023-03-14T02:13:56;8.20;99.90
9987;DHT22;5033;46.310;11.214;2023-03-14T02:16:24;8.20;99.90
9987;DHT22;5033;46.310;11.214;2023-03-14T02:18:52;8.20;99.90
9987;DHT22;5033;46.310;11.214;2023-03-14T02:21:24;8.30;99.90
9987;DHT22;5033;46.310;11.214;2023-03-14T02:24:00;8.30;99.90
9987;DHT22;5033;46.310;11.214;2023-03-14T02:26:34;8.40;99.90
9987;DHT22;5033;46.310;11.214;2023-03-14T02:29:04;8.50;99.90
9987;DHT22;5033;46.310;11.214;2023-03-14T02:31:32;8.50;99.90
9987;DHT22;5033;46.310;11.214;2023-03-14T02:33:59;8.50;99.90
9987;DHT22;5033;46.310;11.214;2023-03-14T02:36:27;8.60;99.90
9987;DHT22;5033;46.310;11.214;2023-03-14T02:39:00;8.60;99.90
9987;DHT22;5033;46.310;11.214;2023-03-14T02:41:30;8.60;99.90
9987;DHT22;5033;46.310;11.214;2023-03-14T02:43:57;8.60;99.90
9987;DHT22;5033;46.310;11.214;2023-03-14T02:46:25;8.60;99.90
9987;DHT22;5033;46.310;11.214;2023-03-14T02:48:54;8.60;99.90
9987;DHT22;5033;46.310;11.214;2023-03-14T02:51:24;8.50;99.90
9987;DHT22;5033;46.310;11.214;2023-03-14T02:53:52;8.50;99.90
9987;DHT22;5033;46.310;11.214;2023-03-14T02:56:19;8.40;99.90
9987;DHT22;5033;46.310;11.214;2023-03-14T02:58:46;8.40;99.90
9987;DHT22;5033;46.310;11.214;2023-03-14T03:01:13;8.50;99.90
9987;DHT22;5033;46.310;11.214;2023-03-14T03:03:42;8.60;99.90
9987;DHT22;5033;46.310;11.214;2023-03-14T03:06:08;8.60;99.90
9987;DHT22;5033;46.310;11.214;2023-03-14T03:08:35;8.60;99.90
9987;DHT22;5033;46.310;11.214;2023-03-14T03:11:03;8.60;99.90
9987;DHT22;5033;46.310;11.214;2023-03-14T03:13:30;8.60;99.90
9987;DHT22;5033;46.310;11.214;2023-03-14T03:15:57;8.70;99.90
9987;DHT22;5033;46.310;11.214;2023-03-14T03:18:24;8.80;99.90
9987;DHT22;5033;46.310;11.214;2023-03-14T03:20:52;8.90;99.90
9987;DHT22;5033;46.310;11.214;2023-03-14T03:23:19;8.90;99.90
9987;DHT22;5033;46.310;11.214;2023-03-14T03:25:48;8.90;99.90
9987;DHT22;5033;46.310;11.214;2023-03-14T03:28:17;8.80;99.90
9987;DHT22;5033;46.310;11.214;2023-03-14T03:30:44;8.70;99.90
9987;DHT22;5033;46.310;11.214;2023-03-14T03:33:12;8.60;99.90
9987;DHT22;5033;46.310;11.214;2023-03-14T03:35:44;8.60;99.90
9987;DHT22;5033;46.310;11.214;2023-03-14T03:38:13;8.60;99.90
9987;DHT22;5033;46.310;11.214;2023-03-14T03:40:40;8.60;99.90
9987;DHT22;5033;46.310;11.214;2023-03-14T03:43:07;8.70;99.90
9987;DHT22;5033;46.310;11.214;2023-03-14T03:45:34;8.70;99.90
9987;DHT22;5033;46.310;11.214;2023-03-14T03:48:01;8.80;99.90
9987;DHT22;5033;46.310;11.214;2023-03-14T03:50:28;8.80;99.90
9987;DHT22;5033;46.310;11.214;2023-03-14T03:52:55;8.80;99.90
9987;DHT22;5033;46.310;11.214;2023-03-14T03:55:23;8.70;99.90
9987;DHT22;5033;46.310;11.214;2023-03-14T03:57:51;8.70;99.90
9987;DHT22;5033;46.310;11.214;2023-03-14T04:00:18;8.60;99.90
9987;DHT22;5033;46.310;11.214;2023-03-14T04:02:45;8.60;99.90
9987;DHT22;5033;46.310;11.214;2023-03-14T04:05:12;8.60;99.90
9987;DHT22;5033;46.310;11.214;2023-03-14T04:07:39;8.60;99.90
9987;DHT22;5033;46.310;11.214;2023-03-14T04:10:07;8.60;99.90
9987;DHT22;5033;46.310;11.214;2023-03-14T04:12:35;8.60;99.90
9987;DHT22;5033;46.310;11.214;2023-03-14T04:15:03;8.60;99.90
9987;DHT22;5033;46.310;11.214;2023-03-14T04:17:30;8.60;99.90
9987;DHT22;5033;46.310;11.214;2023-03-14T04:19:57;8.60;99.90
9987;DHT22;5033;46.310;11.214;2023-03-14T04:22:23;8.60;99.90
9987;DHT22;5033;46.310;11.214;2023-03-14T04:24:50;8.70;99.90
9987;DHT22;5033;46.310;11.214;2023-03-14T04:27:17;8.70;99.90
9987;DHT22;5033;46.310;11.214;2023-03-14T04:29:45;8.80;99.90
9987;DHT22;5033;46.310;11.214;2023-03-14T04:32:12;8.80;99.90
9987;DHT22;5033;46.310;11.214;2023-03-14T04:34:39;8.80;99.90
9987;DHT22;5033;46.310;11.214;2023-03-14T04:37:07;8.80;99.90
9987;DHT22;5033;46.310;11.214;2023-03-14T04:39:34;8.80;99.90
9987;DHT22;5033;46.310;11.214;2023-03-14T04:42:01;8.80;99.90
9987;DHT22;5033;46.310;11.214;2023-03-14T04:44:28;8.90;99.90
9987;DHT22;5033;46.310;11.214;2023-03-14T04:46:56;8.90;99.90
9987;DHT22;5033;46.310;11.214;2023-03-14T04:49:23;8.90;99.90
9987;DHT22;5033;46.310;11.214;2023-03-14T04:51:50;8.90;99.90
9987;DHT22;5033;46.310;11.214;2023-03-14T04:54:18;8.90;99.90
9987;DHT22;5033;46.310;11.214;2023-03-14T04:56:45;8.90;99.90
9987;DHT22;5033;46.310;11.214;2023-03-14T04:59:12;8.80;99.90
9987;DHT22;5033;46.310;11.214;2023-03-14T05:01:39;8.80;99.90
9987;DHT22;5033;46.310;11.214;2023-03-14T05:04:08;8.80;99.90
9987;DHT22;5033;46.310;11.214;2023-03-14T05:06:35;8.80;99.90
9987;DHT22;5033;46.310;11.214;2023-03-14T05:09:02;8.80;99.90
9987;DHT22;5033;46.310;11.214;2023-03-14T05:11:30;8.80;99.90
9987;DHT22;5033;46.310;11.214;2023-03-14T05:13:58;8.80;99.90
9987;DHT22;5033;46.310;11.214;2023-03-14T05:16:25;8.80;99.90
9987;DHT22;5033;46.310;11.214;2023-03-14T05:18:52;8.80;99.90
9987;DHT22;5033;46.310;11.214;2023-03-14T05:21:20;8.80;99.90
9987;DHT22;5033;46.310;11.214;2023-03-14T05:23:47;8.70;99.90
9987;DHT22;5033;46.310;11.214;2023-03-14T05:26:14;8.70;99.90
9987;DHT22;5033;46.310;11.214;2023-03-14T05:28:42;8.70;99.90
9987;DHT22;5033;46.310;11.214;2023-03-14T05:31:09;8.70;99.90
9987;DHT22;5033;46.310;11.214;2023-03-14T05:33:36;8.70;99.90
9987;DHT22;5033;46.310;11.214;2023-03-14T05:36:04;8.70;99.90
9987;DHT22;5033;46.310;11.214;2023-03-14T05:38:33;8.70;99.90
9987;DHT22;5033;46.310;11.214;2023-03-14T05:41:00;8.80;99.90
9987;DHT22;5033;46.310;11.214;2023-03-14T05:43:27;8.80;99.90
9987;DHT22;5033;46.310;11.214;2023-03-14T05:45:53;8.90;99.90
9987;DHT22;5033;46.310;11.214;2023-03-14T05:48:20;8.90;99.90
9987;DHT22;5033;46.310;11.214;2023-03-14T05:50:48;8.90;99.90
9987;DHT22;5033;46.310;11.214;2023-03-14T05:53:15;8.90;99.90
9987;DHT22;5033;46.310;11.214;2023-03-14T05:55:43;8.90;99.90
9987;DHT22;5033;46.310;11.214;2023-03-14T05:58:10;8.90;99.90
9987;DHT22;5033;46.310;11.214;2023-03-14T06:00:37;8.80;99.90
9987;DHT22;5033;46.310;11.214;2023-03-14T06:03:04;8.60;99.90
9987;DHT22;5033;46.310;11.214;2023-03-14T06:05:31;8.40;99.90
9987;DHT22;5033;46.310;11.214;2023-03-14T06:07:58;8.50;99.90
9987;DHT22;5033;46.310;11.214;2023-03-14T06:10:25;8.40;99.90
9987;DHT22;5033;46.310;11.214;2023-03-14T06:12:53;8.30;99.90
9987;DHT22;5033;46.310;11.214;2023-03-14T06:15:20;8.20;99.90
9987;DHT22;5033;46.310;11.214;2023-03-14T06:17:47;8.20;99.90
9987;DHT22;5033;46.310;11.214;2023-03-14T06:20:14;8.20;99.90
9987;DHT22;5033;46.310;11.214;2023-03-14T06:22:41;8.10;99.90
9987;DHT22;5033;46.310;11.214;2023-03-14T06:25:09;8.20;99.90
9987;DHT22;5033;46.310;11.214;2023-03-14T06:27:36;8.20;99.90
9987;DHT22;5033;46.310;11.214;2023-03-14T06:30:05;8.30;99.90
9987;DHT22;5033;46.310;11.214;2023-03-14T06:32:32;8.30;99.90
9987;DHT22;5033;46.310;11.214;2023-03-14T06:34:59;8.40;99.90
9987;DHT22;5033;46.310;11.214;2023-03-14T06:37:26;8.40;99.90
9987;DHT22;5033;46.310;11.214;2023-03-14T06:39:54;8.50;99.90
9987;DHT22;5033;46.310;11.214;2023-03-14T06:42:21;8.50;99.90
9987;DHT22;5033;46.310;11.214;2023-03-14T06:44:48;8.60;99.90
9987;DHT22;5033;46.310;11.214;2023-03-14T06:47:16;8.50;99.90
9987;DHT22;5033;46.310;11.214;2023-03-14T06:49:43;8.50;99.90
9987;DHT22;5033;46.310;11.214;2023-03-14T06:52:10;8.50;99.90
9987;DHT22;5033;46.310;11.214;2023-03-14T06:54:37;8.60;99.90
9987;DHT22;5033;46.310;11.214;2023-03-14T06:57:04;8.60;99.90
9987;DHT22;5033;46.310;11.214;2023-03-14T06:59:31;8.70;99.90
9987;DHT22;5033;46.310;11.214;2023-03-14T07:01:58;8.70;99.90
9987;DHT22;5033;46.310;11.214;2023-03-14T07:04:26;8.80;99.90
9987;DHT22;5033;46.310;11.214;2023-03-14T07:06:53;8.80;99.90
9987;DHT22;5033;46.310;11.214;2023-03-14T07:09:20;8.90;99.90
9987;DHT22;5033;46.310;11.214;2023-03-14T07:11:47;9.00;99.90
9987;DHT22;5033;46.310;11.214;2023-03-14T07:14:14;9.00;99.90
9987;DHT22;5033;46.310;11.214;2023-03-14T07:16:41;9.00;99.90
9987;DHT22;5033;46.310;11.214;2023-03-14T07:19:10;9.00;99.90
9987;DHT22;5033;46.310;11.214;2023-03-14T07:21:38;9.00;99.90
9987;DHT22;5033;46.310;11.214;2023-03-14T07:24:05;9.10;99.90
9987;DHT22;5033;46.310;11.214;2023-03-14T07:26:32;9.10;99.90
9987;DHT22;5033;46.310;11.214;2023-03-14T07:28:59;9.10;99.90
9987;DHT22;5033;46.310;11.214;2023-03-14T07:31:28;9.10;99.90
9987;DHT22;5033;46.310;11.214;2023-03-14T07:33:55;9.10;99.90
9987;DHT22;5033;46.310;11.214;2023-03-14T07:36:22;9.00;99.90
9987;DHT22;5033;46.310;11.214;2023-03-14T07:38:51;9.00;99.90
9987;DHT22;5033;46.310;11.214;2023-03-14T07:41:18;9.10;99.90
9987;DHT22;5033;46.310;11.214;2023-03-14T07:43:46;9.20;99.90
9987;DHT22;5033;46.310;11.214;2023-03-14T07:46:13;9.20;99.90
9987;DHT22;5033;46.310;11.214;2023-03-14T07:48:40;9.20;99.90
9987;DHT22;5033;46.310;11.214;2023-03-14T07:51:07;9.10;99.90
9987;DHT22;5033;46.310;11.214;2023-03-14T07:53:34;9.10;99.90
9987;DHT22;5033;46.310;11.214;2023-03-14T07:56:03;9.10;99.90
9987;DHT22;5033;46.310;11.214;2023-03-14T07:58:30;9.10;99.90
9987;DHT22;5033;46.310;11.214;2023-03-14T08:00:58;9.10;99.90
9987;DHT22;5033;46.310;11.214;2023-03-14T08:03:25;9.00;99.90
9987;DHT22;5033;46.310;11.214;2023-03-14T08:05:53;9.00;99.90
9987;DHT22;5033;46.310;11.214;2023-03-14T08:08:20;9.00;99.90
9987;DHT22;5033;46.310;11.214;2023-03-14T08:10:47;8.90;99.90
9987;DHT22;5033;46.310;11.214;2023-03-14T08:13:15;8.90;99.90
9987;DHT22;5033;46.310;11.214;2023-03-14T08:15:42;8.80;99.90
9987;DHT22;5033;46.310;11.214;2023-03-14T08:18:09;8.90;99.90
9987;DHT22;5033;46.310;11.214;2023-03-14T08:20:36;8.90;99.90
9987;DHT22;5033;46.310;11.214;2023-03-14T08:23:03;9.00;99.90
9987;DHT22;5033;46.310;11.214;2023-03-14T08:25:31;9.00;99.90
9987;DHT22;5033;46.310;11.214;2023-03-14T08:27:58;9.00;99.90
9987;DHT22;5033;46.310;11.214;2023-03-14T08:30:26;9.10;99.90
9987;DHT22;5033;46.310;11.214;2023-03-14T08:32:53;9.20;99.90
9987;DHT22;5033;46.310;11.214;2023-03-14T08:35:20;9.20;99.90
9987;DHT22;5033;46.310;11.214;2023-03-14T08:37:47;9.30;99.90
9987;DHT22;5033;46.310;11.214;2023-03-14T08:40:14;9.40;99.90
9987;DHT22;5033;46.310;11.214;2023-03-14T08:42:43;9.40;99.90
9987;DHT22;5033;46.310;11.214;2023-03-14T08:45:11;9.50;99.90
9987;DHT22;5033;46.310;11.214;2023-03-14T08:47:40;9.50;99.90
9987;DHT22;5033;46.310;11.214;2023-03-14T08:50:08;9.60;99.90
9987;DHT22;5033;46.310;11.214;2023-03-14T08:52:35;9.60;99.90
9987;DHT22;5033;46.310;11.214;2023-03-14T08:55:04;9.60;99.90
9987;DHT22;5033;46.310;11.214;2023-03-14T08:57:31;9.60;99.90
9987;DHT22;5033;46.310;11.214;2023-03-14T08:59:58;9.70;99.90
9987;DHT22;5033;46.310;11.214;2023-03-14T09:02:26;9.80;99.90
9987;DHT22;5033;46.310;11.214;2023-03-14T09:04:55;9.90;99.90
9987;DHT22;5033;46.310;11.214;2023-03-14T09:07:22;10.00;99.90
9987;DHT22;5033;46.310;11.214;2023-03-14T09:09:49;10.00;99.90
9987;DHT22;5033;46.310;11.214;2023-03-14T09:12:16;10.00;99.90
9987;DHT22;5033;46.310;11.214;2023-03-14T09:14:43;10.00;99.90
9987;DHT22;5033;46.310;11.214;2023-03-14T09:17:10;10.20;99.90
9987;DHT22;5033;46.310;11.214;2023-03-14T09:19:37;10.20;99.90
9987;DHT22;5033;46.310;11.214;2023-03-14T09:22:05;10.20;99.90
9987;DHT22;5033;46.310;11.214;2023-03-14T09:24:32;10.10;99.90
9987;DHT22;5033;46.310;11.214;2023-03-14T09:26:59;10.10;99.90
9987;DHT22;5033;46.310;11.214;2023-03-14T09:29:26;10.10;99.90
9987;DHT22;5033;46.310;11.214;2023-03-14T09:31:53;10.10;99.90
9987;DHT22;5033;46.310;11.214;2023-03-14T09:34:20;10.10;99.90
9987;DHT22;5033;46.310;11.214;2023-03-14T09:36:47;9.90;99.90
9987;DHT22;5033;46.310;11.214;2023-03-14T09:39:15;9.80;99.90
9987;DHT22;5033;46.310;11.214;2023-03-14T09:41:45;9.60;99.90
9987;DHT22;5033;46.310;11.214;2023-03-14T09:44:15;9.60;99.90
9987;DHT22;5033;46.310;11.214;2023-03-14T09:46:45;9.50;99.90
9987;DHT22;5033;46.310;11.214;2023-03-14T09:49:19;9.50;99.90
9987;DHT22;5033;46.310;11.214;2023-03-14T09:51:49;9.50;99.90
9987;DHT22;5033;46.310;11.214;2023-03-14T09:54:30;9.60;99.90
9987;DHT22;5033;46.310;11.214;2023-03-14T09:56:58;9.70;99.90
9987;DHT22;5033;46.310;11.214;2023-03-14T09:59:26;9.80;99.90
9987;DHT22;5033;46.310;11.214;2023-03-14T10:01:55;9.90;99.90
9987;DHT22;5033;46.310;11.214;2023-03-14T10:04:23;9.90;99.90
9987;DHT22;5033;46.310;11.214;2023-03-14T10:06:50;10.00;99.90
9987;DHT22;5033;46.310;11.214;2023-03-14T10:09:21;10.10;99.90
9987;DHT22;5033;46.310;11.214;2023-03-14T10:11:55;10.10;99.90
9987;DHT22;5033;46.310;11.214;2023-03-14T10:14:31;10.20;99.90
9987;DHT22;5033;46.310;11.214;2023-03-14T10:17:05;10.30;99.90
9987;DHT22;5033;46.310;11.214;2023-03-14T10:19:33;10.50;99.90
9987;DHT22;5033;46.310;11.214;2023-03-14T10:22:02;10.70;99.90
9987;DHT22;5033;46.310;11.214;2023-03-14T10:24:32;10.80;99.90
9987;DHT22;5033;46.310;11.214;2023-03-14T10:27:03;11.00;99.90
9987;DHT22;5033;46.310;11.214;2023-03-14T10:29:31;11.10;99.90
9987;DHT22;5033;46.310;11.214;2023-03-14T10:31:59;11.20;99.90
9987;DHT22;5033;46.310;11.214;2023-03-14T10:34:29;11.20;99.90
9987;DHT22;5033;46.310;11.214;2023-03-14T10:36:58;11.20;99.90
9987;DHT22;5033;46.310;11.214;2023-03-14T10:39:29;11.20;99.90
9987;DHT22;5033;46.310;11.214;2023-03-14T10:42:05;11.20;99.90
9987;DHT22;5033;46.310;11.214;2023-03-14T10:44:34;11.10;99.90
9987;DHT22;5033;46.310;11.214;2023-03-14T10:47:03;11.00;99.90
9987;DHT22;5033;46.310;11.214;2023-03-14T10:49:34;11.00;99.90
9987;DHT22;5033;46.310;11.214;2023-03-14T10:52:12;11.10;99.90
9987;DHT22;5033;46.310;11.214;2023-03-14T10:54:39;11.20;99.90
9987;DHT22;5033;46.310;11.214;2023-03-14T10:57:10;11.20;99.90
9987;DHT22;5033;46.310;11.214;2023-03-14T10:59:39;11.20;99.90
9987;DHT22;5033;46.310;11.214;2023-03-14T11:02:21;11.20;99.90
9987;DHT22;5033;46.310;11.214;2023-03-14T11:05:01;11.40;99.90
9987;DHT22;5033;46.310;11.214;2023-03-14T11:07:33;11.40;99.90
9987;DHT22;5033;46.310;11.214;2023-03-14T11:10:09;11.50;99.90
9987;DHT22;5033;46.310;11.214;2023-03-14T11:12:45;12.00;99.90
9987;DHT22;5033;46.310;11.214;2023-03-14T11:15:20;12.20;99.90
9987;DHT22;5033;46.310;11.214;2023-03-14T11:17:57;12.40;99.90
9987;DHT22;5033;46.310;11.214;2023-03-14T11:20:34;12.50;99.90
9987;DHT22;5033;46.310;11.214;2023-03-14T11:23:08;12.80;99.90
9987;DHT22;5033;46.310;11.214;2023-03-14T11:25:45;12.80;99.90
9987;DHT22;5033;46.310;11.214;2023-03-14T11:28:19;12.70;99.90
9987;DHT22;5033;46.310;11.214;2023-03-14T11:30:52;12.50;99.90
9987;DHT22;5033;46.310;11.214;2023-03-14T11:33:24;12.40;99.90
9987;DHT22;5033;46.310;11.214;2023-03-14T11:35:57;12.40;99.90
9987;DHT22;5033;46.310;11.214;2023-03-14T11:38:30;12.50;99.90
9987;DHT22;5033;46.310;11.214;2023-03-14T11:41:00;12.30;99.90
9987;DHT22;5033;46.310;11.214;2023-03-14T11:43:32;12.30;99.90
9987;DHT22;5033;46.310;11.214;2023-03-14T11:46:05;12.10;99.90
9987;DHT22;5033;46.310;11.214;2023-03-14T11:48:38;12.10;99.90
9987;DHT22;5033;46.310;11.214;2023-03-14T11:51:11;12.10;99.90
9987;DHT22;5033;46.310;11.214;2023-03-14T11:53:46;12.20;99.90
9987;DHT22;5033;46.310;11.214;2023-03-14T11:56:19;12.00;99.90
9987;DHT22;5033;46.310;11.214;2023-03-14T11:58:52;11.80;99.90
9987;DHT22;5033;46.310;11.214;2023-03-14T12:01:27;11.80;99.90
9987;DHT22;5033;46.310;11.214;2023-03-14T12:03:58;11.80;99.90
9987;DHT22;5033;46.310;11.214;2023-03-14T12:06:32;11.80;99.90
9987;DHT22;5033;46.310;11.214;2023-03-14T12:09:00;11.90;99.90
9987;DHT22;5033;46.310;11.214;2023-03-14T12:11:34;11.90;99.90
9987;DHT22;5033;46.310;11.214;2023-03-14T12:14:18;12.00;99.90
9987;DHT22;5033;46.310;11.214;2023-03-14T12:16:47;12.20;99.90
9987;DHT22;5033;46.310;11.214;2023-03-14T12:19:26;12.40;99.90
9987;DHT22;5033;46.310;11.214;2023-03-14T12:21:57;12.60;99.90
9987;DHT22;5033;46.310;11.214;2023-03-14T12:24:28;13.00;99.90
9987;DHT22;5033;46.310;11.214;2023-03-14T12:26:57;13.30;99.90
9987;DHT22;5033;46.310;11.214;2023-03-14T12:29:25;13.20;99.90
9987;DHT22;5033;46.310;11.214;2023-03-14T12:32:20;13.20;99.90
9987;DHT22;5033;46.310;11.214;2023-03-14T12:34:49;13.30;99.90
9987;DHT22;5033;46.310;11.214;2023-03-14T12:37:33;13.70;99.90
9987;DHT22;5033;46.310;11.214;2023-03-14T12:40:17;14.30;99.90
9987;DHT22;5033;46.310;11.214;2023-03-14T12:42:54;15.10;99.90
9987;DHT22;5033;46.310;11.214;2023-03-14T12:45:27;15.50;99.90
9987;DHT22;5033;46.310;11.214;2023-03-14T12:47:59;15.90;99.90
9987;DHT22;5033;46.310;11.214;2023-03-14T12:50:34;16.20;99.90
9987;DHT22;5033;46.310;11.214;2023-03-14T12:53:24;16.40;99.90
9987;DHT22;5033;46.310;11.214;2023-03-14T12:56:00;16.60;99.90
9987;DHT22;5033;46.310;11.214;2023-03-14T12:58:34;16.40;99.90
9987;DHT22;5033;46.310;11.214;2023-03-14T13:01:05;16.30;99.90
9987;DHT22;5033;46.310;11.214;2023-03-14T13:03:42;16.10;99.90
9987;DHT22;5033;46.310;11.214;2023-03-14T13:06:11;16.10;99.90
9987;DHT22;5033;46.310;11.214;2023-03-14T13:08:40;16.20;99.90
9987;DHT22;5033;46.310;11.214;2023-03-14T13:11:13;16.40;99.90
9987;DHT22;5033;46.310;11.214;2023-03-14T13:13:45;16.40;99.90
9987;DHT22;5033;46.310;11.214;2023-03-14T13:16:16;16.30;99.90
9987;DHT22;5033;46.310;11.214;2023-03-14T13:18:45;16.20;99.90
9987;DHT22;5033;46.310;11.214;2023-03-14T13:21:15;16.10;99.90
9987;DHT22;5033;46.310;11.214;2023-03-14T13:23:56;16.00;99.90
9987;DHT22;5033;46.310;11.214;2023-03-14T13:26:25;16.10;99.90
9987;DHT22;5033;46.310;11.214;2023-03-14T13:28:53;16.20;99.90
9987;DHT22;5033;46.310;11.214;2023-03-14T13:31:24;16.40;99.90
9987;DHT22;5033;46.310;11.214;2023-03-14T13:33:59;16.30;99.90
9987;DHT22;5033;46.310;11.214;2023-03-14T13:36:26;16.30;99.90
9987;DHT22;5033;46.310;11.214;2023-03-14T13:38:58;16.50;99.90
9987;DHT22;5033;46.310;11.214;2023-03-14T13:41:25;16.70;99.90
9987;DHT22;5033;46.310;11.214;2023-03-14T13:44:00;16.90;99.90
9987;DHT22;5033;46.310;11.214;2023-03-14T13:46:29;16.90;99.90
9987;DHT22;5033;46.310;11.214;2023-03-14T13:48:58;16.90;99.90
9987;DHT22;5033;46.310;11.214;2023-03-14T13:51:26;17.00;99.90
9987;DHT22;5033;46.310;11.214;2023-03-14T13:53:57;17.10;99.90
9987;DHT22;5033;46.310;11.214;2023-03-14T13:56:26;17.20;99.90
9987;DHT22;5033;46.310;11.214;2023-03-14T13:58:53;17.10;99.90
9987;DHT22;5033;46.310;11.214;2023-03-14T14:01:22;16.90;99.90
9987;DHT22;5033;46.310;11.214;2023-03-14T14:03:53;16.70;99.90
9987;DHT22;5033;46.310;11.214;2023-03-14T14:06:30;16.40;99.90
9987;DHT22;5033;46.310;11.214;2023-03-14T14:09:00;16.10;99.90
9987;DHT22;5033;46.310;11.214;2023-03-14T14:11:38;15.90;99.90
9987;DHT22;5033;46.310;11.214;2023-03-14T14:14:09;15.80;99.90
9987;DHT22;5033;46.310;11.214;2023-03-14T14:16:37;15.90;99.90
9987;DHT22;5033;46.310;11.214;2023-03-14T14:19:06;15.90;99.90
9987;DHT22;5033;46.310;11.214;2023-03-14T14:21:33;15.80;99.90
9987;DHT22;5033;46.310;11.214;2023-03-14T14:24:00;15.60;99.90
9987;DHT22;5033;46.310;11.214;2023-03-14T14:26:27;15.50;99.90
9987;DHT22;5033;46.310;11.214;2023-03-14T14:29:02;15.50;99.90
9987;DHT22;5033;46.310;11.214;2023-03-14T14:31:29;15.40;99.90
9987;DHT22;5033;46.310;11.214;2023-03-14T14:33:57;15.20;99.90
9987;DHT22;5033;46.310;11.214;2023-03-14T14:36:29;15.00;99.90
9987;DHT22;5033;46.310;11.214;2023-03-14T14:38:59;14.80;99.90
9987;DHT22;5033;46.310;11.214;2023-03-14T14:41:28;14.70;99.90
9987;DHT22;5033;46.310;11.214;2023-03-14T14:43:56;14.50;99.90
9987;DHT22;5033;46.310;11.214;2023-03-14T14:46:26;14.50;99.90
9987;DHT22;5033;46.310;11.214;2023-03-14T14:48:57;14.60;99.90
9987;DHT22;5033;46.310;11.214;2023-03-14T14:51:30;14.80;99.90
9987;DHT22;5033;46.310;11.214;2023-03-14T14:54:03;14.90;99.90
9987;DHT22;5033;46.310;11.214;2023-03-14T14:56:35;15.00;99.90
9987;DHT22;5033;46.310;11.214;2023-03-14T14:59:05;15.30;99.90
9987;DHT22;5033;46.310;11.214;2023-03-14T15:01:34;15.60;99.90
9987;DHT22;5033;46.310;11.214;2023-03-14T15:04:03;15.70;99.90
9987;DHT22;5033;46.310;11.214;2023-03-14T15:06:32;15.50;99.90
9987;DHT22;5033;46.310;11.214;2023-03-14T15:08:59;15.40;99.90
9987;DHT22;5033;46.310;11.214;2023-03-14T15:11:26;15.30;99.90
9987;DHT22;5033;46.310;11.214;2023-03-14T15:13:53;15.30;99.90
9987;DHT22;5033;46.310;11.214;2023-03-14T15:16:22;15.20;99.90
9987;DHT22;5033;46.310;11.214;2023-03-14T15:18:53;15.20;99.90
9987;DHT22;5033;46.310;11.214;2023-03-14T15:21:20;15.10;99.90
9987;DHT22;5033;46.310;11.214;2023-03-14T15:23:49;15.00;99.90
9987;DHT22;5033;46.310;11.214;2023-03-14T15:26:18;14.90;99.90
9987;DHT22;5033;46.310;11.214;2023-03-14T15:28:46;14.70;99.90
9987;DHT22;5033;46.310;11.214;2023-03-14T15:31:14;14.60;99.90
9987;DHT22;5033;46.310;11.214;2023-03-14T15:33:42;14.40;99.90
9987;DHT22;5033;46.310;11.214;2023-03-14T15:36:19;14.20;99.90
9987;DHT22;5033;46.310;11.214;2023-03-14T15:38:48;14.00;99.90
9987;DHT22;5033;46.310;11.214;2023-03-14T15:41:16;13.90;99.90
9987;DHT22;5033;46.310;11.214;2023-03-14T15:43:43;13.80;99.90
9987;DHT22;5033;46.310;11.214;2023-03-14T15:46:10;13.70;99.90
9987;DHT22;5033;46.310;11.214;2023-03-14T15:48:38;13.60;99.90
9987;DHT22;5033;46.310;11.214;2023-03-14T15:51:05;13.60;99.90
9987;DHT22;5033;46.310;11.214;2023-03-14T15:53:32;13.60;99.90
9987;DHT22;5033;46.310;11.214;2023-03-14T15:56:04;13.60;99.90
9987;DHT22;5033;46.310;11.214;2023-03-14T15:58:31;13.70;99.90
9987;DHT22;5033;46.310;11.214;2023-03-14T16:01:00;13.80;99.90
9987;DHT22;5033;46.310;11.214;2023-03-14T16:03:27;13.80;99.90
9987;DHT22;5033;46.310;11.214;2023-03-14T16:05:55;13.90;99.90